Appleton Thorn, United Kingdom
Current Conditions -  °F | °C
As of 9:20 AM on Wednesday 28 Jan 2015 (Local Time) from EGCC Reporting Station
Scattered Clouds Scattered Clouds  
Wind Chill: 31°   Ceiling: Unl
Heat Index: 41°   Visibility: 6mi
Dew Point: 37°   Wind: 25mph
Humidity: 87%   Direction: 280°W
Pressure: 29.44"   Gusts: NA
Location:  53.35°N, 2.54°W
Report Text: EGCC 280920Z AUTO 28022KT 9999 FEW011/// SCT016/// //////CB 05/03 Q0997
Loading
Personal Weather Stations






























Interactive Weather Map New forecast layout! Learn more

10-Day Weather Forecast

Advertisements
Track Severe Weather on mobile